Time;durP1;ratioP1;P1;durP2;ratioP2;P2;SDS_P1;SDS_P2;PMS_P1;PMS_P2;Temp;Humidity;BMP_temperature;BMP_pressure;BME280_temperature;BME280_humidity;BME280_pressure;Samples;Min_cycle;Max_cycle;Signal;HPM_P1;HPM_P2
2021/06/25 00:00:18;;;;;;;7.20;6.50;;;;;;;17.61;54.28;101455.28;5060455;28;20185;-65
2021/06/25 00:02:43;;;;;;;9.87;6.27;;;;;;;17.43;54.84;101461.59;5060585;28;20251;-65
2021/06/25 00:05:10;;;;;;;8.30;6.80;;;;;;;17.44;54.83;101455.44;5060166;28;20205;-64
2021/06/25 00:07:36;;;;;;;7.03;6.33;;;;;;;17.72;54.30;101449.91;5060121;28;20264;-64
2021/06/25 00:10:04;;;;;;;7.33;6.30;;;;;;;17.71;54.61;101448.19;5060608;28;20407;-64
2021/06/25 00:12:29;;;;;;;7.00;6.30;;;;;;;17.75;54.59;101444.63;5060040;28;20406;-64
2021/06/25 00:14:54;;;;;;;10.67;9.57;;;;;;;17.82;54.37;101434.91;5051220;28;20501;-64
2021/06/25 00:17:20;;;;;;;8.97;6.13;;;;;;;17.13;56.12;101445.09;5040284;28;20182;-65
2021/06/25 00:19:45;;;;;;;8.30;7.50;;;;;;;17.45;55.59;101443.97;5039988;28;20178;-64
2021/06/25 00:22:11;;;;;;;8.47;7.60;;;;;;;17.20;56.47;101445.94;5039696;28;20209;-64
2021/06/25 00:24:36;;;;;;;7.30;6.60;;;;;;;17.30;56.27;101444.09;5039900;28;20230;-66
2021/06/25 00:27:01;;;;;;;9.93;8.97;;;;;;;17.24;56.50;101449.41;5039970;28;20441;-65
2021/06/25 00:29:27;;;;;;;7.37;6.67;;;;;;;17.37;56.20;101447.56;5040060;28;20206;-64
2021/06/25 00:31:52;;;;;;;7.63;6.93;;;;;;;17.32;56.15;101451.13;5055259;28;20200;-64
2021/06/25 00:34:17;;;;;;;7.90;7.10;;;;;;;17.26;56.90;101452.91;5059714;28;20177;-64
2021/06/25 00:36:43;;;;;;;8.40;7.40;;;;;;;17.30;56.64;101460.78;5060225;28;20181;-65
2021/06/25 00:39:08;;;;;;;7.67;6.97;;;;;;;17.16;57.14;101449.47;5059852;28;20208;-65
2021/06/25 00:41:33;;;;;;;11.03;8.30;;;;;;;17.20;56.96;101447.69;5059789;28;20184;-65
2021/06/25 00:43:59;;;;;;;8.97;6.30;;;;;;;16.82;58.13;101455.78;5044688;28;20257;-65
2021/06/25 00:46:24;;;;;;;7.50;6.80;;;;;;;16.87;58.34;101441.69;5039684;28;20185;-64
2021/06/25 00:48:49;;;;;;;9.70;8.00;;;;;;;16.90;58.74;101450.50;5039545;28;20177;-64
2021/06/25 00:51:16;;;;;;;7.63;6.70;;;;;;;16.74;59.09;101449.66;5039882;28;20173;-64
2021/06/25 00:53:43;;;;;;;7.23;6.33;;;;;;;16.75;59.41;101451.41;5039292;28;20170;-64
2021/06/25 00:56:12;;;;;;;8.00;7.20;;;;;;;16.77;59.15;101448.78;5039468;28;20436;-64
2021/06/25 00:58:37;;;;;;;7.97;7.13;;;;;;;16.50;60.06;101454.13;5039027;28;20383;-65
2021/06/25 01:01:03;;;;;;;8.90;7.80;;;;;;;16.55;60.02;101458.50;5039317;28;20413;-65
2021/06/25 01:03:28;;;;;;;13.50;12.10;;;;;;;16.33;60.82;101469.09;5039205;28;20540;-63
2021/06/25 01:05:54;;;;;;;10.97;9.70;;;;;;;16.31;61.25;101468.25;5039573;28;20217;-65
2021/06/25 01:08:19;;;;;;;9.80;8.80;;;;;;;16.45;60.33;101469.09;5039158;28;20245;-64
2021/06/25 01:10:44;;;;;;;9.40;8.13;;;;;;;16.35;60.87;101469.97;5040629;28;20186;-65
2021/06/25 01:13:10;;;;;;;19.03;14.50;;;;;;;16.37;60.97;101467.34;5059141;28;20200;-64
2021/06/25 01:15:36;;;;;;;19.73;14.23;;;;;;;16.23;61.48;101462.13;5058973;28;20169;-66
2021/06/25 01:18:01;;;;;;;9.33;8.43;;;;;;;16.23;61.67;101464.75;5059228;28;20252;-65
2021/06/25 01:20:29;;;;;;;8.93;8.00;;;;;;;16.05;62.19;101466.53;5059493;28;20392;-65
2021/06/25 01:22:55;;;;;;;8.80;7.90;;;;;;;16.33;61.47;101470.00;5058774;28;20174;-66
2021/06/25 01:25:24;;;;;;;17.13;14.03;;;;;;;16.38;61.44;101463.84;5058579;28;20537;-66
2021/06/25 01:27:53;;;;;;;13.23;10.50;;;;;;;16.13;62.34;101471.78;5059301;28;20375;-66
2021/06/25 01:30:25;;;;;;;12.47;11.17;;;;;;;16.30;61.95;101474.38;5050741;28;20411;-65
2021/06/25 01:32:51;;;;;;;19.83;17.53;;;;;;;16.12;62.56;101478.78;5038681;28;20819;-68
2021/06/25 01:35:16;;;;;;;11.50;10.43;;;;;;;16.24;62.15;101466.50;5039868;28;20403;-64
2021/06/25 01:37:42;;;;;;;16.23;14.53;;;;;;;16.13;62.27;101467.41;5038636;28;20175;-64
2021/06/25 01:40:10;;;;;;;11.13;9.70;;;;;;;16.37;61.61;101456.81;5039199;28;20185;-64
2021/06/25 01:42:37;;;;;;;9.67;8.77;;;;;;;16.07;62.77;101456.00;5038354;28;20273;-65
2021/06/25 01:45:08;;;;;;;12.40;10.03;;;;;;;16.14;62.75;101444.59;5038468;28;20526;-65
2021/06/25 01:47:35;;;;;;;11.23;10.07;;;;;;;16.00;63.09;101442.84;5038511;28;20483;-65
2021/06/25 01:50:05;;;;;;;9.80;8.80;;;;;;;16.05;63.07;101447.22;5038538;28;20914;-65
2021/06/25 01:52:31;;;;;;;11.90;10.40;;;;;;;16.12;62.82;101444.59;5038698;28;20436;-65
2021/06/25 01:54:56;;;;;;;9.30;8.37;;;;;;;15.79;63.95;101438.47;5038292;28;20763;-65
2021/06/25 01:57:21;;;;;;;11.57;10.30;;;;;;;15.87;63.65;101446.41;5038307;28;20177;-64
2021/06/25 01:59:47;;;;;;;15.63;13.97;;;;;;;15.95;63.27;101447.28;5038870;28;20497;-65
2021/06/25 02:02:12;;;;;;;13.40;11.33;;;;;;;15.98;63.40;101447.25;5037902;28;20245;-64
2021/06/25 02:04:37;;;;;;;15.50;13.20;;;;;;;15.83;63.64;101447.28;5037975;28;20578;-64
2021/06/25 02:07:03;;;;;;;13.33;11.93;;;;;;;16.08;63.07;101445.47;5038649;28;20217;-66
2021/06/25 02:09:28;;;;;;;15.87;12.90;;;;;;;15.64;64.33;101459.50;5038265;28;20262;-64
2021/06/25 02:11:54;;;;;;;15.10;13.40;;;;;;;15.77;64.06;101447.25;5038206;28;20189;-64
2021/06/25 02:14:20;;;;;;;13.20;11.90;;;;;;;15.65;64.15;101449.00;5038488;28;20171;-64
2021/06/25 02:16:45;;;;;;;14.30;12.27;;;;;;;15.87;63.81;101449.03;5038025;28;20417;-64
2021/06/25 02:19:10;;;;;;;25.10;19.97;;;;;;;15.78;63.88;101460.38;5038043;28;20395;-63
2021/06/25 02:21:36;;;;;;;19.30;16.10;;;;;;;16.10;63.02;101454.25;5038186;28;20508;-64
2021/06/25 02:24:01;;;;;;;15.73;14.13;;;;;;;15.98;63.15;101447.25;5037553;28;20222;-64
2021/06/25 02:26:26;;;;;;;14.37;11.63;;;;;;;15.75;64.00;101441.09;5038011;28;20232;-64
2021/06/25 02:28:52;;;;;;;15.13;12.80;;;;;;;15.89;63.79;101434.13;5038294;28;20193;-65
2021/06/25 02:31:18;;;;;;;25.73;20.20;;;;;;;15.76;63.72;101437.59;5037651;28;20171;-65
2021/06/25 02:33:43;;;;;;;14.53;12.67;;;;;;;15.78;64.06;101427.97;5037731;28;20166;-65
2021/06/25 02:36:09;;;;;;;13.00;11.70;;;;;;;16.15;63.05;101430.56;5039362;28;20769;-65
2021/06/25 02:38:34;;;;;;;14.10;12.60;;;;;;;15.74;63.96;101436.75;5038042;28;20197;-64
2021/06/25 02:40:59;;;;;;;20.40;15.83;;;;;;;15.73;64.05;101433.22;5039507;28;20189;-65
2021/06/25 02:43:24;;;;;;;15.83;13.67;;;;;;;15.85;63.90;101428.88;5041954;28;20173;-65
2021/06/25 02:45:50;;;;;;;14.80;13.17;;;;;;;15.96;63.19;101427.09;5040910;28;20206;-64
2021/06/25 02:48:15;;;;;;;16.13;13.37;;;;;;;15.64;64.04;101438.47;5041814;28;20267;-64
2021/06/25 02:50:41;;;;;;;19.07;13.57;;;;;;;15.71;64.15;101441.97;5042442;28;20174;-65
2021/06/25 02:53:06;;;;;;;17.70;14.13;;;;;;;15.52;64.51;101431.50;5041707;28;20543;-64
2021/06/25 02:55:31;;;;;;;15.30;13.27;;;;;;;15.76;64.11;101430.63;5041735;28;20174;-67
2021/06/25 02:57:57;;;;;;;18.93;14.60;;;;;;;15.88;63.75;101416.59;5041585;28;20167;-67
2021/06/25 03:00:22;;;;;;;16.47;14.03;;;;;;;15.53;64.63;101414.81;5041756;28;20474;-67
2021/06/25 03:02:48;;;;;;;17.27;15.00;;;;;;;15.65;64.35;101420.09;5040759;28;20270;-64
2021/06/25 03:05:15;;;;;;;16.87;14.67;;;;;;;15.75;63.99;101406.91;5042067;28;20568;-64
2021/06/25 03:07:41;;;;;;;16.13;14.43;;;;;;;15.96;63.59;101400.81;5041598;28;20262;-64
2021/06/25 03:10:07;;;;;;;18.37;13.57;;;;;;;16.04;63.28;101388.50;5041464;28;20705;-65
2021/06/25 03:12:33;;;;;;;15.67;14.07;;;;;;;15.76;64.06;101385.91;5041648;28;20399;-64
2021/06/25 03:14:59;;;;;;;16.83;15.23;;;;;;;15.87;64.17;101387.66;5041198;28;20180;-65
2021/06/25 03:17:24;;;;;;;15.80;14.07;;;;;;;16.18;62.93;101385.81;5040630;28;20738;-64
2021/06/25 03:19:50;;;;;;;16.03;14.40;;;;;;;15.63;64.42;101394.69;5041535;28;20420;-64
2021/06/25 03:22:15;;;;;;;15.43;12.97;;;;;;;15.95;63.47;101386.78;5041134;28;20216;-64
2021/06/25 03:24:41;;;;;;;16.37;12.87;;;;;;;16.10;62.82;101392.88;5040864;28;20486;-65
2021/06/25 03:27:06;;;;;;;14.10;12.40;;;;;;;15.90;63.62;101379.75;5041665;28;20429;-65
2021/06/25 03:29:32;;;;;;;15.60;12.70;;;;;;;16.00;62.95;101381.50;5040973;28;20210;-65
2021/06/25 03:31:57;;;;;;;14.80;12.97;;;;;;;15.99;62.85;101385.00;5042021;28;20178;-65
2021/06/25 03:34:22;;;;;;;13.37;11.90;;;;;;;16.16;62.70;101383.22;5041398;28;20159;-65
2021/06/25 03:36:48;;;;;;;13.00;11.63;;;;;;;16.15;62.62;101381.44;5040994;28;20174;-65
2021/06/25 03:39:13;;;;;;;13.20;11.80;;;;;;;16.80;60.23;101380.28;5041007;28;20257;-65
2021/06/25 03:41:39;;;;;;;12.80;11.50;;;;;;;17.23;58.95;101379.16;5041200;28;20240;-65
2021/06/25 03:44:04;;;;;;;12.23;11.03;;;;;;;17.43;58.50;101368.47;5040749;28;20174;-65
2021/06/25 03:46:29;;;;;;;11.60;10.50;;;;;;;17.80;56.64;101376.88;5040758;28;20263;-64
2021/06/25 03:48:55;;;;;;;12.53;11.23;;;;;;;17.70;56.46;101377.88;5040951;28;20181;-64
2021/06/25 03:51:20;;;;;;;11.60;10.07;;;;;;;18.30;55.35;101381.66;5044702;28;20178;-64
2021/06/25 03:53:45;;;;;;;10.73;9.63;;;;;;;18.64;53.40;101381.22;5039884;28;20189;-64
2021/06/25 03:56:11;;;;;;;11.70;10.47;;;;;;;18.37;54.21;101380.66;5040812;28;20233;-64
2021/06/25 03:58:48;;;;;;;10.87;9.77;;;;;;;18.46;54.33;101393.75;5039869;28;20244;-65
2021/06/25 04:01:14;;;;;;;11.00;9.90;;;;;;;18.82;53.79;101380.97;5040433;28;20173;-64
2021/06/25 04:03:39;;;;;;;11.30;9.60;;;;;;;18.79;53.34;101383.63;5040351;28;20512;-64
2021/06/25 04:06:06;;;;;;;10.70;9.60;;;;;;;18.80;53.80;101380.09;5040305;28;20202;-64
2021/06/25 04:08:32;;;;;;;10.83;9.73;;;;;;;18.59;54.11;101388.31;5040120;28;20175;-64
2021/06/25 04:10:58;;;;;;;11.57;10.37;;;;;;;18.36;54.38;101386.88;5040174;28;20462;-65
2021/06/25 04:13:24;;;;;;;11.70;10.43;;;;;;;18.06;55.23;101388.94;5040613;28;20166;-64
2021/06/25 04:15:50;;;;;;;11.20;9.70;;;;;;;17.99;55.73;101388.13;5059379;28;20436;-65
2021/06/25 04:18:15;;;;;;;11.37;10.27;;;;;;;18.29;55.20;101388.72;5045881;28;20510;-64
2021/06/25 04:20:42;;;;;;;12.03;10.20;;;;;;;18.38;54.59;101389.47;5040004;28;20193;-65
2021/06/25 04:23:07;;;;;;;11.60;10.37;;;;;;;17.94;56.90;101399.63;5044572;28;20182;-64
2021/06/25 04:25:32;;;;;;;11.20;9.80;;;;;;;17.95;56.86;101390.84;5039809;28;20466;-64
2021/06/25 04:27:58;;;;;;;12.50;10.30;;;;;;;17.71;57.58;101395.47;5039466;28;20194;-64
2021/06/25 04:30:23;;;;;;;10.80;9.70;;;;;;;17.74;57.74;101403.31;5040051;28;20182;-63
2021/06/25 04:32:48;;;;;;;11.27;10.10;;;;;;;17.35;59.06;101410.69;5050889;28;20284;-64
2021/06/25 04:35:14;;;;;;;10.87;9.77;;;;;;;17.49;58.65;101395.66;5040093;28;20583;-64
2021/06/25 04:37:40;;;;;;;11.57;10.07;;;;;;;17.63;57.99;101394.63;5046257;28;20547;-64
2021/06/25 04:40:06;;;;;;;11.07;9.97;;;;;;;17.62;57.74;101385.00;5059865;28;20169;-64
2021/06/25 04:42:32;;;;;;;11.30;9.90;;;;;;;17.98;57.48;101386.41;5059460;28;20431;-65
2021/06/25 04:44:57;;;;;;;11.67;9.57;;;;;;;18.18;57.10;101383.56;5060085;28;20427;-65
2021/06/25 04:47:22;;;;;;;10.20;9.20;;;;;;;17.89;57.69;101365.38;5040847;28;20213;-65
2021/06/25 04:49:48;;;;;;;10.07;9.17;;;;;;;17.87;57.48;101364.50;5038911;28;20178;-65
2021/06/25 04:52:13;;;;;;;10.57;9.47;;;;;;;18.07;57.27;101360.81;5040565;28;20454;-64
2021/06/25 04:54:38;;;;;;;9.80;8.90;;;;;;;18.24;56.37;101365.88;5059453;28;20220;-65
2021/06/25 04:57:04;;;;;;;9.83;8.83;;;;;;;18.42;55.59;101349.81;5059313;28;20177;-64
2021/06/25 04:59:29;;;;;;;10.13;9.13;;;;;;;18.39;55.96;101352.50;5059666;28;20593;-64
2021/06/25 05:01:54;;;;;;;12.97;9.60;;;;;;;18.13;56.40;101351.06;5054252;28;20219;-64
2021/06/25 05:04:20;;;;;;;9.63;8.63;;;;;;;18.89;54.15;101338.63;5039186;28;20240;-64
2021/06/25 05:06:47;;;;;;;9.50;8.60;;;;;;;18.55;54.74;101349.66;5039341;28;20245;-64
2021/06/25 05:09:13;;;;;;;10.60;9.07;;;;;;;19.10;53.79;101343.56;5038986;28;20236;-65
2021/06/25 05:11:38;;;;;;;11.07;9.97;;;;;;;19.24;53.53;101351.28;5038816;28;20472;-67
2021/06/25 05:14:04;;;;;;;12.67;9.87;;;;;;;19.22;54.32;101358.34;5039554;28;20409;-65
2021/06/25 05:16:29;;;;;;;10.63;9.53;;;;;;;19.34;53.77;101352.00;5038877;28;20216;-64
2021/06/25 05:18:54;;;;;;;10.50;9.53;;;;;;;19.28;53.78;101352.97;5038761;28;20264;-65
2021/06/25 05:21:20;;;;;;;10.03;9.13;;;;;;;19.94;52.22;101352.69;5039307;28;20177;-65
2021/06/25 05:23:45;;;;;;;9.63;8.63;;;;;;;20.07;52.03;101356.00;5038690;28;20245;-64
2021/06/25 05:26:11;;;;;;;11.43;9.00;;;;;;;19.96;52.50;101357.06;5039803;28;20216;-65
2021/06/25 05:28:36;;;;;;;10.63;8.93;;;;;;;19.93;51.70;101356.25;5058365;28;20202;-63
2021/06/25 05:31:02;;;;;;;11.30;9.50;;;;;;;19.77;52.62;101359.16;5057873;28;20299;-64
2021/06/25 05:33:27;;;;;;;9.43;8.40;;;;;;;20.22;50.33;101363.59;5057695;28;20540;-64
2021/06/25 05:35:53;;;;;;;9.57;8.60;;;;;;;20.19;50.17;101374.28;5049701;28;20189;-64
2021/06/25 05:38:18;;;;;;;9.67;8.67;;;;;;;21.18;47.27;101369.44;5048687;28;20185;-64
2021/06/25 05:40:44;;;;;;;9.50;8.63;;;;;;;21.61;46.66;101372.78;5045186;28;20181;-64
2021/06/25 05:43:10;;;;;;;8.87;7.97;;;;;;;22.47;43.96;101370.41;5051528;28;20201;-65
2021/06/25 05:45:36;;;;;;;9.20;8.37;;;;;;;22.48;44.27;101361.53;5040042;28;20224;-67
2021/06/25 05:48:02;;;;;;;8.90;8.00;;;;;;;21.95;45.41;101369.25;5036269;28;20185;-65
2021/06/25 05:50:28;;;;;;;9.10;8.30;;;;;;;22.00;45.49;101362.00;5042521;28;20467;-62
2021/06/25 05:52:53;;;;;;;10.07;7.73;;;;;;;21.46;46.31;101364.31;5039426;28;20420;-66
2021/06/25 05:55:19;;;;;;;9.77;8.80;;;;;;;23.17;42.85;101361.16;5041375;28;20178;-64
2021/06/25 05:57:47;;;;;;;8.93;8.03;;;;;;;22.23;44.36;101371.09;5047090;28;20204;-64
2021/06/25 06:00:13;;;;;;;8.73;7.33;;;;;;;22.14;44.13;101375.75;5058016;28;20543;-65
2021/06/25 06:02:38;;;;;;;9.07;8.17;;;;;;;23.17;42.08;101373.59;5058805;28;20437;-64
2021/06/25 06:05:04;;;;;;;8.27;7.50;;;;;;;23.53;41.09;101371.47;5055804;28;20734;-64
2021/06/25 06:07:29;;;;;;;8.23;7.50;;;;;;;22.08;43.44;101375.94;5039299;28;20194;-64
2021/06/25 06:09:54;;;;;;;8.20;7.00;;;;;;;22.44;42.39;101367.84;5046526;28;20257;-65
2021/06/25 06:12:20;;;;;;;8.77;7.97;;;;;;;24.62;37.90;101371.09;5043410;28;20590;-63
2021/06/25 06:14:46;;;;;;;9.33;8.37;;;;;;;24.93;36.82;101367.22;5050991;28;20252;-64
2021/06/25 06:17:11;;;;;;;7.43;6.27;;;;;;;24.59;37.77;101378.34;5051720;28;20339;-64
2021/06/25 06:19:39;;;;;;;8.43;6.40;;;;;;;24.67;37.50;101381.59;5037924;28;20529;-64
2021/06/25 06:33:23;;;;;;;5.67;5.27;;;;;;;24.58;36.58;101398.78;5038190;28;20582;-64
2021/06/25 06:35:50;;;;;;;6.97;5.97;;;;;;;24.34;37.26;101388.13;5037721;28;20722;-65
2021/06/25 06:38:15;;;;;;;6.47;5.97;;;;;;;24.71;36.26;101385.88;5045172;28;20458;-65
2021/06/25 06:40:41;;;;;;;7.17;6.50;;;;;;;26.07;34.02;101374.84;5040550;28;20444;-65
2021/06/25 06:43:06;;;;;;;8.53;6.47;;;;;;;28.07;30.57;101365.97;5044903;28;20181;-64
2021/06/25 06:45:32;;;;;;;6.73;5.97;;;;;;;27.80;30.88;101377.19;5039020;28;20359;-65
2021/06/25 06:47:57;;;;;;;5.40;4.90;;;;;;;26.79;31.35;101381.34;5036968;28;20216;-67
2021/06/25 06:50:22;;;;;;;5.53;5.03;;;;;;;26.93;31.46;101378.00;5037329;28;20261;-64
2021/06/25 06:52:50;;;;;;;5.80;5.30;;;;;;;26.74;31.86;101388.72;5051402;28;20272;-65
2021/06/25 06:55:17;;;;;;;6.27;5.20;;;;;;;25.03;34.56;101387.25;5040554;28;20174;-65
2021/06/25 06:57:43;;;;;;;5.30;4.80;;;;;;;26.07;31.97;101385.53;5057769;28;20408;-62
2021/06/25 07:00:09;;;;;;;5.70;5.20;;;;;;;26.38;32.53;101379.69;5057259;28;20412;-66
2021/06/25 07:02:39;;;;;;;5.27;4.77;;;;;;;26.83;30.60;101390.06;5046610;28;20445;-65
2021/06/25 07:05:06;;;;;;;5.07;4.50;;;;;;;26.91;31.23;101384.38;5047182;28;20468;-68
2021/06/25 07:07:31;;;;;;;5.00;4.43;;;;;;;26.20;32.00;101389.41;5056525;28;20477;-66
2021/06/25 07:09:56;;;;;;;7.33;4.83;;;;;;;25.79;32.38;101397.44;5052182;28;20471;-66
2021/06/25 07:12:22;;;;;;;4.57;4.10;;;;;;;25.83;31.84;101384.81;5057136;28;20231;-66
2021/06/25 07:14:48;;;;;;;4.60;4.20;;;;;;;26.48;30.74;101377.44;5056025;28;20185;-67
2021/06/25 07:17:13;;;;;;;5.30;4.60;;;;;;;26.70;30.92;101379.09;5053833;28;20190;-64
2021/06/25 07:19:38;;;;;;;4.30;4.00;;;;;;;26.77;31.33;101388.56;5045784;28;20449;-64
2021/06/25 07:22:04;;;;;;;4.50;4.10;;;;;;;26.64;31.04;101388.28;5056629;28;20181;-65
2021/06/25 07:24:29;;;;;;;4.50;4.10;;;;;;;25.49;32.92;101388.94;5056508;28;20233;-67
2021/06/25 07:26:55;;;;;;;5.03;4.60;;;;;;;25.72;33.37;101386.16;5057005;28;20197;-66
2021/06/25 07:29:20;;;;;;;5.60;4.57;;;;;;;26.46;31.80;101386.47;5059292;28;20291;-66
2021/06/25 07:31:45;;;;;;;4.70;4.30;;;;;;;25.51;34.04;101387.09;5060279;28;20177;-66
2021/06/25 07:34:11;;;;;;;4.57;4.17;;;;;;;24.77;35.36;101388.28;5058702;28;20212;-66
2021/06/25 07:36:37;;;;;;;4.80;4.40;;;;;;;25.10;35.71;101385.22;5044353;28;20196;-66
2021/06/25 07:39:03;;;;;;;5.17;4.77;;;;;;;25.50;34.83;101382.69;5044006;28;20538;-65
2021/06/25 07:41:28;;;;;;;4.83;4.40;;;;;;;26.48;33.24;101388.13;5059756;28;20181;-65
2021/06/25 07:43:53;;;;;;;5.57;5.17;;;;;;;25.37;34.39;101391.22;5047486;28;20182;-66
2021/06/25 07:46:18;;;;;;;5.37;4.97;;;;;;;25.06;35.22;101391.59;5040070;28;20213;-66
2021/06/25 07:48:44;;;;;;;5.20;4.70;;;;;;;25.84;34.27;101381.22;5040506;28;20178;-67
2021/06/25 07:51:09;;;;;;;5.63;5.13;;;;;;;25.94;33.88;101387.00;5046806;28;20557;-67
2021/06/25 07:53:34;;;;;;;6.00;5.60;;;;;;;26.81;32.89;101374.09;5058391;28;20181;-66
2021/06/25 07:56:00;;;;;;;6.57;5.37;;;;;;;25.81;34.18;101379.53;5048405;28;20177;-66
2021/06/25 07:58:25;;;;;;;5.37;4.87;;;;;;;26.46;33.25;101376.63;5047470;28;20204;-65
2021/06/25 08:00:50;;;;;;;6.57;5.23;;;;;;;27.06;32.85;101378.25;5059775;28;20174;-67
2021/06/25 08:03:16;;;;;;;5.90;5.30;;;;;;;27.82;30.73;101375.31;5058484;28;20169;-64
2021/06/25 08:05:41;;;;;;;5.57;5.07;;;;;;;27.11;31.86;101370.84;5059270;28;20500;-65
2021/06/25 08:08:07;;;;;;;5.90;5.33;;;;;;;26.83;31.28;101372.25;5058791;28;20248;-64
2021/06/25 08:10:33;;;;;;;5.60;5.20;;;;;;;28.35;28.99;101375.19;5051744;28;20568;-63
2021/06/25 08:12:59;;;;;;;5.23;4.83;;;;;;;28.61;28.24;101364.81;5051600;28;20235;-64
2021/06/25 08:15:24;;;;;;;6.10;5.60;;;;;;;28.60;28.28;101357.72;5053667;28;20452;-64
2021/06/25 08:17:49;;;;;;;5.97;5.50;;;;;;;28.52;28.66;101363.50;5059746;28;20174;-65
2021/06/25 08:20:15;;;;;;;7.17;6.20;;;;;;;25.55;34.34;101370.00;5059881;28;20204;-64
2021/06/25 08:22:40;;;;;;;6.00;5.50;;;;;;;25.86;33.79;101368.66;5049605;28;20548;-65
2021/06/25 08:25:06;;;;;;;6.17;5.67;;;;;;;27.81;29.46;101362.84;5052973;28;20252;-64
2021/06/25 08:27:31;;;;;;;6.60;6.00;;;;;;;28.22;28.79;101372.31;5039466;28;20170;-66
2021/06/25 08:29:56;;;;;;;6.60;6.10;;;;;;;26.25;31.81;101372.28;5039660;28;20461;-64
2021/06/25 08:32:22;;;;;;;6.50;5.90;;;;;;;26.58;31.68;101366.31;5043423;28;20235;-66
2021/06/25 08:34:48;;;;;;;7.50;6.80;;;;;;;28.95;27.27;101368.28;5049605;28;20192;-66
2021/06/25 08:37:13;;;;;;;6.10;5.60;;;;;;;28.40;29.82;101370.41;5047915;28;20499;-68
2021/06/25 08:39:38;;;;;;;6.70;6.20;;;;;;;27.75;29.08;101373.03;5039317;28;20566;-66
2021/06/25 08:42:05;;;;;;;6.47;5.97;;;;;;;28.31;28.62;101376.31;5055855;28;20455;-65
2021/06/25 08:44:38;;;;;;;6.50;6.00;;;;;;;27.66;29.50;101367.19;5059504;28;20170;-66
2021/06/25 08:47:04;;;;;;;6.20;5.60;;;;;;;28.39;28.85;101366.03;5059287;28;20408;-65
2021/06/25 08:49:33;;;;;;;6.67;6.07;;;;;;;27.96;29.18;101362.97;5059079;28;20420;-66
2021/06/25 08:51:58;;;;;;;6.00;5.50;;;;;;;27.14;30.02;101361.81;5058618;28;20432;-64
2021/06/25 08:54:23;;;;;;;7.07;6.37;;;;;;;28.57;28.52;101354.25;5044740;28;20448;-65
2021/06/25 08:56:49;;;;;;;6.90;6.30;;;;;;;29.15;28.52;101354.53;5039317;28;20185;-66
2021/06/25 08:59:19;;;;;;;6.60;6.00;;;;;;;29.90;27.58;101351.00;5039008;28;20281;-66
2021/06/25 09:01:47;;;;;;;6.43;5.83;;;;;;;28.74;28.10;101365.88;5043453;28;20578;-66
2021/06/25 09:04:29;;;;;;;6.30;5.80;;;;;;;28.65;28.20;101353.84;5046763;28;20931;-65
2021/06/25 09:06:55;;;;;;;5.50;5.10;;;;;;;29.73;27.25;101352.03;5041980;28;20827;-65
2021/06/25 09:09:21;;;;;;;6.33;5.77;;;;;;;27.26;30.58;101358.50;5048301;28;20451;-64
2021/06/25 09:12:06;;;;;;;10.87;9.90;;;;;;;30.39;26.10;101347.88;5047796;28;20182;-64
2021/06/25 09:14:55;;;;;;;6.80;6.03;;;;;;;30.21;25.79;101346.38;5051695;28;20185;-65
2021/06/25 09:17:20;;;;;;;6.30;5.80;;;;;;;28.53;29.04;101359.88;5052306;28;20529;-64
2021/06/25 09:19:45;;;;;;;6.00;5.60;;;;;;;28.51;28.32;101354.59;5038548;28;20482;-64
2021/06/25 09:22:10;;;;;;;5.47;5.07;;;;;;;26.91;31.45;101360.28;5038766;28;20178;-64
2021/06/25 09:24:36;;;;;;;7.40;6.80;;;;;;;25.92;32.17;101360.34;5038592;28;20311;-64
2021/06/25 09:27:04;;;;;;;6.60;6.10;;;;;;;27.56;31.01;101366.81;5038737;28;20462;-65
2021/06/25 09:29:34;;;;;;;7.50;6.80;;;;;;;28.17;28.92;101359.16;5038413;28;20193;-65
2021/06/25 09:32:05;;;;;;;7.00;6.40;;;;;;;27.46;30.11;101354.84;5038437;28;20429;-64
2021/06/25 09:34:40;;;;;;;6.90;6.27;;;;;;;28.63;28.94;101352.16;5038310;28;20468;-65
2021/06/25 09:37:12;;;;;;;7.70;7.10;;;;;;;29.03;27.85;101356.13;5038280;28;21035;-65
2021/06/25 09:39:41;;;;;;;8.03;7.33;;;;;;;28.09;29.34;101364.09;5038820;28;20551;-64
2021/06/25 09:42:15;;;;;;;6.40;5.90;;;;;;;26.88;32.51;101363.97;5037726;28;20810;-66
2021/06/25 09:44:41;;;;;;;7.60;6.90;;;;;;;25.60;33.89;101373.34;5055723;28;20520;-65
2021/06/25 09:47:06;;;;;;;7.53;6.93;;;;;;;24.94;35.06;101373.41;5055557;28;20888;-65
2021/06/25 09:49:32;;;;;;;8.87;5.80;;;;;;;26.56;32.43;101364.56;5045088;28;20208;-66
2021/06/25 09:52:03;;;;;;;6.30;5.80;;;;;;;27.72;30.19;101358.84;5037277;28;20175;-66
2021/06/25 09:54:29;;;;;;;6.27;5.67;;;;;;;28.09;29.28;101360.53;5037746;28;20431;-67
2021/06/25 09:57:14;;;;;;;5.90;5.40;;;;;;;27.75;30.44;101357.78;5038099;28;20445;-65
2021/06/25 10:00:09;;;;;;;6.53;6.00;;;;;;;26.85;31.09;101364.13;5037101;28;20448;-66
2021/06/25 10:02:31;;;;;;;6.23;5.70;;;;;;;25.39;34.38;101369.78;5050864;28;20484;-68
2021/06/25 10:05:12;;;;;;;7.50;6.90;;;;;;;25.35;34.18;101370.84;5045261;28;20476;-65
2021/06/25 10:07:38;;;;;;;7.63;6.97;;;;;;;25.24;34.73;101381.97;5050405;28;20742;-64
2021/06/25 10:10:12;;;;;;;7.67;6.97;;;;;;;27.37;32.19;101366.03;5039110;28;20491;-65
2021/06/25 10:12:43;;;;;;;7.53;6.93;;;;;;;26.33;32.42;101363.00;5037748;28;20544;-65
2021/06/25 10:15:10;;;;;;;6.97;6.47;;;;;;;25.96;32.98;101367.28;5041974;28;20441;-65
2021/06/25 10:17:37;;;;;;;7.10;6.60;;;;;;;26.33;33.41;101367.44;5037295;28;20709;-64
2021/06/25 10:20:08;;;;;;;7.30;6.67;;;;;;;27.49;30.29;101360.03;5036622;28;20447;-65
2021/06/25 10:22:36;;;;;;;7.07;6.57;;;;;;;28.66;29.11;101357.38;5037805;28;20475;-65
2021/06/25 10:25:03;;;;;;;6.90;6.40;;;;;;;28.50;27.85;101346.66;5051562;28;20512;-65
2021/06/25 10:27:29;;;;;;;6.03;5.63;;;;;;;27.92;29.29;101350.69;5057244;28;20426;-65
2021/06/25 10:29:57;;;;;;;7.20;6.60;;;;;;;28.43;28.10;101351.50;5057039;28;20424;-64
2021/06/25 10:32:22;;;;;;;7.10;6.60;;;;;;;27.72;28.63;101356.19;5057458;28;20416;-65
2021/06/25 10:34:48;;;;;;;6.60;6.10;;;;;;;28.22;27.74;101359.75;5056946;28;20469;-65
2021/06/25 10:37:16;;;;;;;5.90;5.50;;;;;;;28.94;26.89;101356.66;5057502;28;20209;-65
2021/06/25 10:39:41;;;;;;;5.70;5.30;;;;;;;29.07;25.25;101348.78;5057335;28;20174;-64
2021/06/25 10:42:11;;;;;;;5.87;5.37;;;;;;;28.39;25.35;101345.44;5057266;28;20419;-64
2021/06/25 10:44:52;;;;;;;5.90;5.40;;;;;;;28.01;26.51;101355.56;5050277;28;20185;-64
2021/06/25 10:47:20;;;;;;;5.30;4.90;;;;;;;28.95;26.34;101342.28;5038473;28;20435;-65
2021/06/25 10:50:05;;;;;;;5.80;5.40;;;;;;;28.70;26.35;101343.72;5055176;28;20448;-64
2021/06/25 10:52:35;;;;;;;6.30;5.70;;;;;;;28.00;27.72;101348.47;5046602;28;20518;-65
2021/06/25 10:55:12;;;;;;;6.53;5.93;;;;;;;29.33;26.43;101351.75;5037396;28;20417;-64
2021/06/25 10:57:50;;;;;;;6.30;5.83;;;;;;;28.05;26.64;101341.09;5037115;28;20745;-66
2021/06/25 11:00:30;;;;;;;9.10;6.57;;;;;;;28.75;26.78;101330.03;5041634;28;20444;-66
2021/06/25 11:02:55;;;;;;;6.50;5.50;;;;;;;28.88;26.91;101344.47;5043187;28;20489;-65
2021/06/25 11:05:21;;;;;;;5.87;5.37;;;;;;;28.91;26.54;101343.44;5066880;28;20760;-67
2021/06/25 11:07:46;;;;;;;6.33;5.77;;;;;;;28.13;27.39;101338.84;5072956;28;20181;-65
2021/06/25 11:10:22;;;;;;;6.27;5.87;;;;;;;27.87;27.30;101337.53;5050405;28;20204;-65
2021/06/25 11:12:48;;;;;;;6.07;5.67;;;;;;;27.63;27.87;101339.69;5039685;28;20185;-67
2021/06/25 11:15:13;;;;;;;6.10;5.70;;;;;;;27.85;27.87;101339.44;5049873;28;20448;-66
2021/06/25 11:17:53;;;;;;;6.53;6.03;;;;;;;29.01;26.75;101336.56;5058942;28;20212;-67
2021/06/25 11:20:23;;;;;;;7.53;6.83;;;;;;;28.06;27.71;101340.09;5061320;28;20162;-66
2021/06/25 11:23:01;;;;;;;8.13;7.53;;;;;;;27.67;28.56;101335.91;5060860;28;20420;-65
2021/06/25 11:25:56;;;;;;;7.07;6.57;;;;;;;26.98;28.86;101329.59;5051932;28;20475;-65
2021/06/25 11:28:24;;;;;;;6.30;5.90;;;;;;;27.03;29.36;101332.91;5040852;28;20492;-65